createdAt,value
2022-10-11T00:00:50.281Z,3.67
2022-10-11T00:03:51.639Z,3.58
2022-10-11T00:06:52.944Z,3.92
2022-10-11T00:09:54.186Z,3.95
2022-10-11T00:12:55.466Z,3.38
2022-10-11T00:15:56.785Z,4.25
2022-10-11T00:18:58.013Z,3.78
2022-10-11T00:21:59.295Z,3.58
2022-10-11T00:25:00.625Z,3.78
2022-10-11T00:28:01.889Z,3.80
2022-10-11T00:31:06.588Z,3.95
2022-10-11T00:34:08.437Z,3.65
2022-10-11T00:37:09.689Z,4.40
2022-10-11T00:40:14.203Z,4.43
2022-10-11T00:43:20.341Z,4.82
2022-10-11T00:46:26.017Z,4.22
2022-10-11T00:49:36.320Z,4.32
2022-10-11T00:52:40.314Z,4.30
2022-10-11T00:55:50.946Z,3.58
2022-10-11T00:58:52.704Z,3.40
2022-10-11T01:01:54.073Z,3.85
2022-10-11T01:08:54.475Z,3.17
2022-10-11T01:11:57.825Z,3.90
2022-10-11T01:15:05.799Z,4.78
2022-10-11T01:18:13.174Z,4.40
2022-10-11T01:21:22.299Z,4.00
2022-10-11T01:24:42.454Z,4.90
2022-10-11T01:28:02.488Z,4.88
2022-10-11T01:31:08.635Z,3.85
2022-10-11T01:34:30.131Z,4.60
2022-10-11T01:37:31.389Z,4.90
2022-10-11T01:41:05.192Z,5.88
2022-10-11T01:44:07.350Z,4.88
2022-10-11T01:47:08.573Z,4.80
2022-10-11T01:50:28.411Z,4.40
2022-10-11T01:53:29.801Z,4.82
2022-10-11T01:56:31.057Z,5.00
2022-10-11T01:59:44.223Z,5.70
2022-10-11T02:02:50.282Z,4.68
2022-10-11T02:06:06.220Z,5.50
2022-10-11T02:09:26.585Z,5.03
2022-10-11T02:12:33.798Z,5.05
2022-10-11T02:15:36.557Z,5.68
2022-10-11T02:18:39.101Z,5.50
2022-10-11T02:21:42.220Z,5.28
2022-10-11T02:24:45.511Z,5.20
2022-10-11T02:27:48.065Z,5.60
2022-10-11T02:30:50.694Z,5.32
2022-10-11T02:33:51.922Z,5.72
2022-10-11T02:37:04.831Z,5.78
2022-10-11T02:40:24.817Z,6.38
2022-10-11T02:43:45.394Z,5.75
2022-10-11T02:46:46.825Z,5.55
2022-10-11T02:49:48.082Z,5.15
2022-10-11T02:52:49.329Z,5.43
2022-10-11T02:55:51.815Z,5.05
2022-10-11T02:58:53.086Z,4.57
2022-10-11T03:01:54.399Z,5.28
2022-10-11T03:04:55.716Z,3.88
2022-10-11T03:07:56.961Z,3.83
2022-10-11T03:10:58.217Z,2.80
2022-10-11T03:13:59.470Z,2.88
2022-10-11T03:17:17.268Z,2.65
2022-10-11T03:20:21.970Z,2.40
2022-10-11T03:23:23.329Z,2.25
2022-10-11T03:26:24.573Z,2.03
2022-10-11T03:29:25.821Z,1.90
2022-10-11T03:32:27.634Z,1.98
2022-10-11T03:35:28.897Z,2.08
2022-10-11T03:38:30.153Z,1.98
2022-10-11T03:41:31.467Z,1.90
2022-10-11T03:44:32.725Z,1.80
2022-10-11T03:47:34.716Z,2.00
2022-10-11T03:50:36.437Z,1.70
2022-10-11T03:53:37.693Z,1.70
2022-10-11T03:56:38.938Z,1.50
2022-10-11T03:59:40.238Z,1.80
2022-10-11T04:02:41.505Z,1.70
2022-10-11T04:05:42.762Z,1.30
2022-10-11T04:08:47.370Z,1.40
2022-10-11T04:11:48.614Z,1.42
2022-10-11T04:14:49.860Z,1.50
2022-10-11T04:17:51.097Z,1.83
2022-10-11T04:20:52.331Z,1.30
2022-10-11T04:23:54.380Z,1.30
2022-10-11T04:26:55.607Z,1.05
2022-10-11T04:29:56.874Z,0.98
2022-10-11T04:32:58.146Z,1.02
2022-10-11T04:35:59.435Z,0.95
2022-10-11T04:39:01.612Z,1.35
2022-10-11T04:42:02.867Z,1.30
2022-10-11T04:45:05.358Z,1.05
2022-10-11T04:48:06.596Z,1.10
2022-10-11T04:51:07.849Z,0.93
2022-10-11T04:54:09.093Z,1.10
2022-10-11T04:57:10.341Z,1.00
2022-10-11T05:00:12.199Z,1.10
2022-10-11T05:03:13.438Z,1.20
2022-10-11T05:06:14.779Z,1.10
2022-10-11T05:09:16.121Z,1.13
2022-10-11T05:12:17.373Z,1.02
2022-10-11T05:15:18.695Z,1.08
2022-10-11T05:18:20.470Z,1.10
2022-10-11T05:21:23.719Z,1.10
2022-10-11T05:24:24.982Z,1.50
2022-10-11T05:27:26.510Z,1.13
2022-10-11T05:30:27.779Z,3.30
2022-10-11T05:33:29.109Z,0.98
2022-10-11T05:36:30.343Z,1.08
2022-10-11T05:39:32.252Z,1.35
2022-10-11T05:42:33.489Z,1.17
2022-10-11T05:45:35.935Z,1.10
2022-10-11T05:48:37.253Z,1.95
2022-10-11T05:51:38.474Z,1.00
2022-10-11T05:54:39.791Z,1.20
2022-10-11T05:57:41.110Z,0.88
2022-10-11T06:00:42.358Z,1.23
2022-10-11T06:03:43.683Z,1.10
2022-10-11T06:06:45.123Z,1.00
2022-10-11T06:09:46.382Z,0.82
2022-10-11T06:12:47.618Z,1.20
2022-10-11T06:15:48.839Z,1.20
2022-10-11T06:18:56.769Z,1.17
2022-10-11T06:21:58.052Z,1.33
2022-10-11T06:24:59.278Z,1.17
2022-10-11T06:28:00.510Z,1.35
2022-10-11T06:31:03.150Z,1.10
2022-10-11T06:34:04.398Z,1.20
2022-10-11T06:37:06.307Z,1.35
2022-10-11T06:40:07.986Z,1.00
2022-10-11T06:43:09.256Z,1.20
2022-10-11T06:46:10.623Z,1.35
2022-10-11T06:49:11.920Z,0.80
2022-10-11T06:52:13.202Z,1.17
2022-10-11T06:55:14.459Z,1.02
2022-10-11T06:58:15.740Z,1.20
2022-10-11T07:01:18.928Z,0.95
2022-10-11T07:04:20.307Z,1.00
2022-10-11T07:07:21.608Z,0.98
2022-10-11T07:10:22.876Z,1.10
2022-10-11T07:13:24.438Z,1.40
2022-10-11T07:16:26.059Z,0.73
2022-10-11T07:19:27.317Z,1.00
2022-10-11T07:22:28.615Z,1.60
2022-10-11T07:25:29.856Z,1.20
2022-10-11T07:28:31.335Z,1.48
2022-10-11T07:31:32.667Z,1.13
2022-10-11T07:34:33.894Z,1.05
2022-10-11T07:37:35.191Z,1.80
2022-10-11T07:40:41.587Z,1.08
2022-10-11T07:43:43.659Z,1.30
2022-10-11T07:46:45.062Z,1.08
2022-10-11T07:49:46.322Z,0.80
2022-10-11T07:52:47.552Z,0.85
2022-10-11T07:55:48.816Z,1.40
2022-10-11T07:58:51.464Z,1.40
2022-10-11T08:01:52.840Z,1.10
2022-10-11T08:04:54.145Z,1.10
2022-10-11T08:07:55.428Z,1.20
2022-10-11T08:10:57.421Z,1.10
2022-10-11T08:13:59.062Z,1.15
2022-10-11T08:17:00.493Z,0.70
2022-10-11T08:20:01.768Z,1.23
2022-10-11T08:23:03.018Z,1.00
2022-10-11T08:26:04.844Z,0.90
2022-10-11T08:29:06.484Z,1.00
2022-10-11T08:32:11.853Z,1.30
2022-10-11T08:35:13.082Z,1.65
2022-10-11T08:38:14.824Z,1.15
2022-10-11T08:41:34.639Z,0.93
2022-10-11T08:45:09.036Z,1.33
2022-10-11T08:48:08.362Z,0.88
2022-10-11T08:51:14.938Z,1.20
2022-10-11T08:54:22.203Z,1.38
2022-10-11T08:57:25.942Z,1.33
2022-10-11T09:00:30.544Z,0.98
2022-10-11T09:03:37.864Z,0.98
2022-10-11T09:07:05.519Z,1.20
2022-10-11T09:10:13.990Z,1.20
2022-10-11T09:13:31.351Z,1.00
2022-10-11T09:16:42.629Z,1.65
2022-10-11T09:19:46.718Z,0.70
2022-10-11T09:23:00.198Z,0.75
2022-10-11T09:26:01.407Z,0.98
2022-10-11T09:29:10.583Z,1.02
2022-10-11T09:32:13.703Z,1.00
2022-10-11T09:35:16.727Z,1.33
2022-10-11T09:38:36.836Z,0.80
2022-10-11T09:41:52.366Z,0.93
2022-10-11T09:44:54.899Z,0.95
2022-10-11T09:47:59.401Z,1.02
2022-10-11T09:51:06.174Z,1.23
2022-10-11T09:54:07.711Z,1.00
2022-10-11T09:57:19.248Z,1.08
2022-10-11T10:00:24.711Z,1.50
2022-10-11T10:03:30.121Z,0.98
2022-10-11T10:06:31.823Z,1.92
2022-10-11T10:09:33.054Z,1.50
2022-10-11T10:12:34.303Z,1.58
2022-10-11T10:15:37.189Z,0.88
2022-10-11T10:18:42.391Z,1.48
2022-10-11T10:21:45.290Z,0.93
2022-10-11T10:24:47.372Z,1.10
2022-10-11T10:27:59.211Z,0.82
2022-10-11T10:31:00.459Z,0.93
2022-10-11T10:34:02.789Z,0.98
2022-10-11T10:37:07.764Z,1.02
2022-10-11T10:40:13.043Z,1.77
2022-10-11T10:43:16.023Z,1.35
2022-10-11T10:46:22.587Z,1.35
2022-10-11T10:49:52.956Z,1.30
2022-10-11T10:52:54.285Z,0.80
2022-10-11T10:56:06.564Z,1.20
2022-10-11T10:59:26.702Z,1.15
2022-10-11T11:02:40.577Z,1.35
2022-10-11T11:05:55.010Z,1.30
2022-10-11T11:09:04.093Z,1.15
2022-10-11T11:12:20.691Z,1.13
2022-10-11T11:15:27.157Z,1.10
2022-10-11T11:18:43.416Z,1.35
2022-10-11T11:22:04.976Z,1.88
2022-10-11T11:25:09.062Z,1.92
2022-10-11T11:28:30.695Z,1.30
2022-10-11T11:31:31.942Z,1.10
2022-10-11T11:34:37.858Z,1.10
2022-10-11T11:37:40.302Z,1.20
2022-10-11T11:40:43.173Z,1.30
2022-10-11T11:44:05.615Z,1.38
2022-10-11T11:47:17.836Z,1.30
2022-10-11T11:50:23.086Z,0.95
2022-10-11T11:53:50.739Z,1.48
2022-10-11T11:56:54.966Z,1.30
2022-10-11T12:00:00.974Z,1.27
2022-10-11T12:03:03.952Z,1.08
2022-10-11T12:06:17.428Z,1.08
2022-10-11T12:09:18.658Z,1.25
2022-10-11T12:12:25.800Z,1.30
2022-10-11T12:15:27.155Z,1.20
2022-10-11T12:18:29.350Z,1.10
2022-10-11T12:21:35.326Z,1.27
2022-10-11T12:24:55.538Z,1.20
2022-10-11T12:28:19.917Z,0.80
2022-10-11T12:31:25.908Z,1.10
2022-10-11T12:34:35.275Z,1.10
2022-10-11T12:37:36.687Z,1.70
2022-10-11T12:40:42.105Z,1.42
2022-10-11T12:43:49.448Z,1.25
2022-10-11T12:46:50.712Z,0.70
2022-10-11T12:50:10.950Z,1.10
2022-10-11T12:53:21.681Z,1.10
2022-10-11T12:56:47.710Z,1.10
2022-10-11T12:59:49.126Z,1.20
2022-10-11T13:02:50.481Z,1.27
2022-10-11T13:05:53.878Z,1.00
2022-10-11T13:09:15.577Z,0.98
2022-10-11T13:12:21.398Z,1.40
2022-10-11T13:15:22.807Z,1.27
2022-10-11T13:18:25.531Z,1.40
2022-10-11T13:21:29.130Z,1.10
2022-10-11T13:24:37.466Z,1.42
2022-10-11T13:27:39.195Z,1.25
2022-10-11T13:30:43.654Z,1.35
2022-10-11T13:33:45.561Z,1.60
2022-10-11T13:36:46.807Z,1.17
2022-10-11T13:39:48.938Z,1.20
2022-10-11T13:42:51.362Z,0.85
2022-10-11T13:45:53.714Z,0.98
2022-10-11T13:49:02.031Z,1.42
2022-10-11T13:52:06.899Z,1.30
2022-10-11T13:55:11.466Z,1.25
2022-10-11T13:58:19.133Z,1.10
2022-10-11T14:01:22.351Z,1.30
2022-10-11T14:04:29.381Z,1.17
2022-10-11T14:07:37.284Z,1.15
2022-10-11T14:10:38.560Z,1.10
2022-10-11T14:13:43.954Z,1.20
2022-10-11T14:16:54.682Z,1.33
2022-10-11T14:20:11.811Z,1.23
2022-10-11T14:23:14.195Z,1.08
2022-10-11T14:26:18.688Z,1.20
2022-10-11T14:29:34.324Z,1.27
2022-10-11T14:32:36.359Z,0.70
2022-10-11T14:35:37.984Z,1.10
2022-10-11T14:38:39.301Z,1.13
2022-10-11T14:41:40.577Z,1.20
2022-10-11T14:44:41.844Z,1.30
2022-10-11T14:47:43.419Z,1.02
2022-10-11T14:50:59.226Z,1.30
2022-10-11T14:54:00.463Z,0.93
2022-10-11T14:57:02.511Z,1.30
2022-10-11T15:00:07.499Z,1.77
2022-10-11T15:03:08.802Z,1.50
2022-10-11T15:06:18.277Z,1.73
2022-10-11T15:09:22.554Z,1.30
2022-10-11T15:12:24.032Z,1.50
2022-10-11T15:15:26.488Z,1.42
2022-10-11T15:18:28.902Z,1.40
2022-10-11T15:21:30.264Z,1.20
2022-10-11T15:24:31.570Z,1.33
2022-10-11T15:27:32.871Z,1.35
2022-10-11T15:30:41.080Z,1.40
2022-10-11T15:33:43.355Z,1.45
2022-10-11T15:36:44.777Z,1.60
2022-10-11T15:39:46.050Z,1.38
2022-10-11T15:42:47.395Z,2.00
2022-10-11T15:45:48.666Z,1.17
2022-10-11T15:48:50.375Z,1.23
2022-10-11T15:51:51.665Z,1.15
2022-10-11T15:54:52.923Z,1.30
2022-10-11T15:57:54.188Z,1.40
2022-10-11T16:00:58.474Z,1.60
2022-10-11T16:03:59.793Z,2.30
2022-10-11T16:07:01.089Z,2.33
2022-10-11T16:10:03.099Z,2.45
2022-10-11T16:13:04.731Z,1.73
2022-10-11T16:16:07.539Z,1.25
2022-10-11T16:19:09.380Z,1.13
2022-10-11T16:22:10.660Z,1.40
2022-10-11T16:25:11.902Z,1.30
2022-10-11T16:28:13.213Z,1.10
2022-10-11T16:31:17.938Z,1.40
2022-10-11T16:34:19.268Z,1.35
2022-10-11T16:37:20.567Z,1.30
2022-10-11T16:40:22.103Z,1.55
2022-10-11T16:43:23.387Z,1.70
2022-10-11T16:46:24.722Z,1.20
2022-10-11T16:49:27.279Z,1.30
2022-10-11T16:52:28.542Z,1.20
2022-10-11T16:55:29.839Z,1.50
2022-10-11T16:58:31.065Z,1.92
2022-10-11T17:01:32.407Z,1.73
2022-10-11T17:04:33.663Z,1.63
2022-10-11T17:07:35.035Z,1.40
2022-10-11T17:10:44.379Z,1.50
2022-10-11T17:13:45.871Z,1.00
2022-10-11T17:16:47.164Z,1.38
2022-10-11T17:19:48.430Z,2.83
2022-10-11T17:22:51.355Z,2.97
2022-10-11T17:25:52.625Z,2.28
2022-10-11T17:28:54.484Z,1.92
2022-10-11T17:31:55.835Z,1.60
2022-10-11T17:34:59.102Z,1.60
2022-10-11T17:38:05.729Z,1.25
2022-10-11T17:41:10.187Z,1.63
2022-10-11T17:44:11.974Z,2.38
2022-10-11T17:47:14.243Z,2.03
2022-10-11T17:50:15.529Z,2.10
2022-10-11T17:53:16.792Z,2.33
2022-10-11T17:56:23.954Z,3.10
2022-10-11T17:59:28.816Z,4.30
2022-10-11T18:02:30.163Z,2.40
2022-10-11T18:05:31.436Z,3.15
2022-10-11T18:08:40.137Z,2.80
2022-10-11T18:11:42.058Z,3.97
2022-10-11T18:14:43.454Z,4.60
2022-10-11T18:17:44.774Z,4.50
2022-10-11T18:20:47.302Z,4.13
2022-10-11T18:23:48.623Z,3.47
2022-10-11T18:26:49.895Z,3.53
2022-10-11T18:29:51.308Z,3.50
2022-10-11T18:32:52.568Z,4.47
2022-10-11T18:36:00.559Z,4.95
2022-10-11T18:39:03.024Z,6.70
2022-10-11T18:42:04.923Z,5.53
2022-10-11T18:45:06.651Z,6.22
2022-10-11T18:48:08.921Z,4.57
2022-10-11T18:51:12.145Z,4.82
2022-10-11T18:54:16.883Z,5.63
2022-10-11T18:57:21.479Z,5.35
2022-10-11T19:00:40.227Z,6.03
2022-10-11T19:03:42.812Z,6.55
2022-10-11T19:06:47.333Z,6.90
2022-10-11T19:09:48.991Z,6.32
2022-10-11T19:12:50.292Z,5.82
2022-10-11T19:15:51.644Z,6.95
2022-10-11T19:18:53.184Z,7.43
2022-10-11T19:21:54.697Z,5.18
2022-10-11T19:24:55.982Z,2.42
2022-10-11T19:27:57.390Z,4.03
2022-10-11T19:31:02.560Z,3.88
2022-10-11T19:34:03.967Z,3.75
2022-10-11T19:37:05.924Z,3.63
2022-10-11T19:40:07.573Z,5.55
2022-10-11T19:43:08.838Z,3.67
2022-10-11T19:46:12.507Z,3.38
2022-10-11T19:49:15.804Z,3.42
2022-10-11T19:52:17.066Z,4.32
2022-10-11T19:55:18.336Z,4.03
2022-10-11T19:58:19.612Z,3.72
2022-10-11T20:01:25.240Z,4.05
2022-10-11T20:04:51.483Z,3.90
2022-10-11T20:07:47.946Z,4.13
2022-10-11T20:10:49.508Z,3.33
2022-10-11T20:13:52.526Z,2.75
2022-10-11T20:16:53.884Z,3.40
2022-10-11T20:19:55.188Z,2.83
2022-10-11T20:22:56.473Z,2.25
2022-10-11T20:26:08.743Z,3.15
2022-10-11T20:29:10.060Z,1.90
2022-10-11T20:32:11.323Z,3.38
2022-10-11T20:35:12.618Z,2.42
2022-10-11T20:38:13.866Z,2.45
2022-10-11T20:41:18.004Z,1.98
2022-10-11T20:44:19.266Z,3.38
2022-10-11T20:47:20.551Z,2.88
2022-10-11T20:50:23.145Z,3.15
2022-10-11T20:53:24.654Z,3.75
2022-10-11T20:56:26.688Z,2.97
2022-10-11T20:59:27.985Z,3.05
2022-10-11T21:02:29.231Z,3.03
2022-10-11T21:05:30.670Z,3.40
2022-10-11T21:08:32.224Z,2.83
2022-10-11T21:11:33.666Z,2.22
2022-10-11T21:14:34.992Z,3.30
2022-10-11T21:17:36.504Z,3.55
2022-10-11T21:20:38.328Z,3.53
2022-10-11T21:23:40.240Z,1.75
2022-10-11T21:26:41.501Z,3.25
2022-10-11T21:29:43.653Z,2.72
2022-10-11T21:32:44.994Z,2.80
2022-10-11T21:35:46.493Z,2.60
2022-10-11T21:38:48.291Z,2.25
2022-10-11T21:41:49.514Z,2.05
2022-10-11T21:44:50.779Z,1.50
2022-10-11T21:47:52.086Z,1.58
2022-10-11T21:50:53.791Z,2.20
2022-10-11T21:53:57.354Z,1.90
2022-10-11T21:56:58.654Z,1.88
2022-10-11T21:59:59.910Z,1.35
2022-10-11T22:03:01.184Z,1.95
2022-10-11T22:06:03.371Z,1.50
2022-10-11T22:09:05.194Z,1.48
2022-10-11T22:12:06.515Z,1.20
2022-10-11T22:15:07.957Z,1.58
2022-10-11T22:18:09.304Z,1.83
2022-10-11T22:21:14.940Z,1.70
2022-10-11T22:24:16.671Z,1.50
2022-10-11T22:27:17.967Z,1.50
2022-10-11T22:30:19.312Z,1.60
2022-10-11T22:33:20.576Z,1.58
2022-10-11T22:36:24.047Z,1.70
2022-10-11T22:39:25.322Z,1.63
2022-10-11T22:42:27.734Z,1.38
2022-10-11T22:45:29.095Z,1.38
2022-10-11T22:48:30.416Z,1.52
2022-10-11T22:51:31.756Z,1.63
2022-10-11T22:54:33.010Z,1.67
2022-10-11T22:57:34.499Z,1.58
2022-10-11T23:00:36.170Z,1.40
2022-10-11T23:03:37.539Z,2.00
2022-10-11T23:06:38.839Z,1.50
2022-10-11T23:09:40.083Z,2.00
2022-10-11T23:12:41.437Z,1.33
2022-10-11T23:15:42.695Z,1.67
2022-10-11T23:18:43.965Z,1.83
2022-10-11T23:21:45.257Z,1.13
2022-10-11T23:24:46.533Z,2.08
2022-10-11T23:27:47.855Z,1.23
2022-10-11T23:30:49.094Z,2.63
2022-10-11T23:33:50.404Z,1.55
2022-10-11T23:36:51.663Z,1.92
2022-10-11T23:39:52.969Z,2.08
2022-10-11T23:42:54.198Z,1.80
2022-10-11T23:45:55.864Z,1.52
2022-10-11T23:48:57.176Z,1.30
2022-10-11T23:51:58.450Z,1.88
2022-10-11T23:54:59.663Z,2.00
2022-10-11T23:58:00.949Z,1.80
